sensor_id;sensor_type;location;lat;lon;timestamp;temperature;humidity
22364;DHT22;11349;53.412;-1.328;2022-08-01T00:01:34;16.70;1.00
22364;DHT22;11349;53.412;-1.328;2022-08-01T00:04:00;16.70;1.00
22364;DHT22;11349;53.412;-1.328;2022-08-01T00:06:26;16.60;1.00
22364;DHT22;11349;53.412;-1.328;2022-08-01T00:08:52;16.60;1.00
22364;DHT22;11349;53.412;-1.328;2022-08-01T00:11:17;16.60;1.00
22364;DHT22;11349;53.412;-1.328;2022-08-01T00:13:43;16.60;1.00
22364;DHT22;11349;53.412;-1.328;2022-08-01T00:16:09;16.50;1.00
22364;DHT22;11349;53.412;-1.328;2022-08-01T00:18:35;16.50;1.00
22364;DHT22;11349;53.412;-1.328;2022-08-01T00:21:02;16.50;1.00
22364;DHT22;11349;53.412;-1.328;2022-08-01T00:23:28;16.50;1.00
22364;DHT22;11349;53.412;-1.328;2022-08-01T00:25:53;16.50;1.00
22364;DHT22;11349;53.412;-1.328;2022-08-01T00:28:20;16.50;1.00
22364;DHT22;11349;53.412;-1.328;2022-08-01T00:30:45;16.40;1.00
22364;DHT22;11349;53.412;-1.328;2022-08-01T00:33:11;16.40;1.00
22364;DHT22;11349;53.412;-1.328;2022-08-01T00:35:37;16.40;1.00
22364;DHT22;11349;53.412;-1.328;2022-08-01T00:38:03;16.40;1.00
22364;DHT22;11349;53.412;-1.328;2022-08-01T00:40:28;16.30;1.00
22364;DHT22;11349;53.412;-1.328;2022-08-01T00:42:54;16.30;1.00
22364;DHT22;11349;53.412;-1.328;2022-08-01T00:45:20;16.30;1.00
22364;DHT22;11349;53.412;-1.328;2022-08-01T00:47:46;16.30;1.00
22364;DHT22;11349;53.412;-1.328;2022-08-01T00:50:12;16.30;1.00
22364;DHT22;11349;53.412;-1.328;2022-08-01T00:52:39;16.30;1.00
22364;DHT22;11349;53.412;-1.328;2022-08-01T00:55:05;16.20;1.00
22364;DHT22;11349;53.412;-1.328;2022-08-01T00:57:31;16.20;1.00
22364;DHT22;11349;53.412;-1.328;2022-08-01T00:59:57;16.20;1.00
22364;DHT22;11349;53.412;-1.328;2022-08-01T01:02:23;16.20;1.00
22364;DHT22;11349;53.412;-1.328;2022-08-01T01:04:49;16.20;1.00
22364;DHT22;11349;53.412;-1.328;2022-08-01T01:07:40;16.20;1.00
22364;DHT22;11349;53.412;-1.328;2022-08-01T01:10:22;16.20;1.00
22364;DHT22;11349;53.412;-1.328;2022-08-01T01:12:55;16.10;1.00
22364;DHT22;11349;53.412;-1.328;2022-08-01T01:15:34;16.10;1.00
22364;DHT22;11349;53.412;-1.328;2022-08-01T01:18:23;16.10;1.00
22364;DHT22;11349;53.412;-1.328;2022-08-01T01:24:21;16.10;1.00
22364;DHT22;11349;53.412;-1.328;2022-08-01T01:27:07;16.10;1.00
22364;DHT22;11349;53.412;-1.328;2022-08-01T01:29:42;16.10;1.00
22364;DHT22;11349;53.412;-1.328;2022-08-01T01:32:35;16.10;1.00
22364;DHT22;11349;53.412;-1.328;2022-08-01T01:35:28;16.10;1.00
22364;DHT22;11349;53.412;-1.328;2022-08-01T01:38:19;16.00;1.00
22364;DHT22;11349;53.412;-1.328;2022-08-01T01:40:47;16.00;1.00
22364;DHT22;11349;53.412;-1.328;2022-08-01T01:43:15;16.00;1.00
22364;DHT22;11349;53.412;-1.328;2022-08-01T01:45:42;16.00;1.00
22364;DHT22;11349;53.412;-1.328;2022-08-01T01:48:10;15.90;1.00
22364;DHT22;11349;53.412;-1.328;2022-08-01T01:50:39;15.90;1.00
22364;DHT22;11349;53.412;-1.328;2022-08-01T01:53:07;15.90;1.00
22364;DHT22;11349;53.412;-1.328;2022-08-01T01:55:37;15.90;1.00
22364;DHT22;11349;53.412;-1.328;2022-08-01T01:58:05;15.90;1.00
22364;DHT22;11349;53.412;-1.328;2022-08-01T02:00:33;15.90;1.00
22364;DHT22;11349;53.412;-1.328;2022-08-01T02:03:01;15.80;1.00
22364;DHT22;11349;53.412;-1.328;2022-08-01T02:05:28;15.80;1.00
22364;DHT22;11349;53.412;-1.328;2022-08-01T02:07:55;15.80;1.00
22364;DHT22;11349;53.412;-1.328;2022-08-01T02:10:23;15.80;1.00
22364;DHT22;11349;53.412;-1.328;2022-08-01T02:12:50;15.70;1.00
22364;DHT22;11349;53.412;-1.328;2022-08-01T02:15:18;15.80;1.00
22364;DHT22;11349;53.412;-1.328;2022-08-01T02:17:48;15.70;1.00
22364;DHT22;11349;53.412;-1.328;2022-08-01T02:20:14;15.70;1.00
22364;DHT22;11349;53.412;-1.328;2022-08-01T02:22:49;15.70;1.00
22364;DHT22;11349;53.412;-1.328;2022-08-01T02:25:33;15.60;1.00
22364;DHT22;11349;53.412;-1.328;2022-08-01T02:30:33;15.60;1.00
22364;DHT22;11349;53.412;-1.328;2022-08-01T02:33:06;15.60;1.00
22364;DHT22;11349;53.412;-1.328;2022-08-01T02:35:38;15.50;1.00
22364;DHT22;11349;53.412;-1.328;2022-08-01T02:38:10;15.50;1.00
22364;DHT22;11349;53.412;-1.328;2022-08-01T02:40:40;15.50;1.00
22364;DHT22;11349;53.412;-1.328;2022-08-01T02:43:09;15.40;1.00
22364;DHT22;11349;53.412;-1.328;2022-08-01T02:45:42;15.50;1.00
22364;DHT22;11349;53.412;-1.328;2022-08-01T02:48:14;15.50;1.00
22364;DHT22;11349;53.412;-1.328;2022-08-01T02:50:42;15.40;1.00
22364;DHT22;11349;53.412;-1.328;2022-08-01T02:53:11;15.40;1.00
22364;DHT22;11349;53.412;-1.328;2022-08-01T02:55:41;15.40;1.00
22364;DHT22;11349;53.412;-1.328;2022-08-01T02:58:09;15.40;1.00
22364;DHT22;11349;53.412;-1.328;2022-08-01T03:00:36;15.40;1.00
22364;DHT22;11349;53.412;-1.328;2022-08-01T03:03:05;15.30;1.00
22364;DHT22;11349;53.412;-1.328;2022-08-01T03:05:33;15.30;1.00
22364;DHT22;11349;53.412;-1.328;2022-08-01T03:08:00;15.30;1.00
22364;DHT22;11349;53.412;-1.328;2022-08-01T03:10:28;15.30;1.00
22364;DHT22;11349;53.412;-1.328;2022-08-01T03:12:55;15.20;1.00
22364;DHT22;11349;53.412;-1.328;2022-08-01T03:15:23;15.30;1.00
22364;DHT22;11349;53.412;-1.328;2022-08-01T03:17:51;15.20;1.00
22364;DHT22;11349;53.412;-1.328;2022-08-01T03:20:20;15.20;1.00
22364;DHT22;11349;53.412;-1.328;2022-08-01T03:22:47;15.20;2.90
22364;DHT22;11349;53.412;-1.328;2022-08-01T03:25:15;15.20;1.80
22364;DHT22;11349;53.412;-1.328;2022-08-01T03:27:43;15.10;1.00
22364;DHT22;11349;53.412;-1.328;2022-08-01T03:30:11;15.10;6.30
22364;DHT22;11349;53.412;-1.328;2022-08-01T03:32:38;15.10;13.20
22364;DHT22;11349;53.412;-1.328;2022-08-01T03:35:04;15.10;21.90
22364;DHT22;11349;53.412;-1.328;2022-08-01T03:37:34;15.10;19.90
22364;DHT22;11349;53.412;-1.328;2022-08-01T03:42:43;15.00;12.90
22364;DHT22;11349;53.412;-1.328;2022-08-01T03:45:13;15.10;34.50
22364;DHT22;11349;53.412;-1.328;2022-08-01T03:47:44;15.10;28.80
22364;DHT22;11349;53.412;-1.328;2022-08-01T03:50:13;15.00;23.90
22364;DHT22;11349;53.412;-1.328;2022-08-01T03:52:42;15.00;38.30
22364;DHT22;11349;53.412;-1.328;2022-08-01T03:55:10;15.00;42.30
22364;DHT22;11349;53.412;-1.328;2022-08-01T03:57:37;15.00;53.30
22364;DHT22;11349;53.412;-1.328;2022-08-01T04:00:05;15.00;44.00
22364;DHT22;11349;53.412;-1.328;2022-08-01T04:02:37;14.90;56.40
22364;DHT22;11349;53.412;-1.328;2022-08-01T04:05:04;14.90;61.10
22364;DHT22;11349;53.412;-1.328;2022-08-01T04:07:32;14.90;77.50
22364;DHT22;11349;53.412;-1.328;2022-08-01T04:10:02;14.90;69.60
22364;DHT22;11349;53.412;-1.328;2022-08-01T04:12:28;14.90;76.80
22364;DHT22;11349;53.412;-1.328;2022-08-01T04:14:54;14.90;82.20
22364;DHT22;11349;53.412;-1.328;2022-08-01T04:17:19;14.80;90.50
22364;DHT22;11349;53.412;-1.328;2022-08-01T04:19:45;14.80;86.70
22364;DHT22;11349;53.412;-1.328;2022-08-01T04:22:14;14.70;98.30
22364;DHT22;11349;53.412;-1.328;2022-08-01T04:24:41;14.60;97.70
22364;DHT22;11349;53.412;-1.328;2022-08-01T04:27:13;14.60;99.90
22364;DHT22;11349;53.412;-1.328;2022-08-01T04:29:41;14.60;99.90
22364;DHT22;11349;53.412;-1.328;2022-08-01T04:32:11;14.50;99.90
22364;DHT22;11349;53.412;-1.328;2022-08-01T04:34:39;14.50;99.90
22364;DHT22;11349;53.412;-1.328;2022-08-01T04:37:09;14.40;99.90
22364;DHT22;11349;53.412;-1.328;2022-08-01T04:39:37;14.40;99.90
22364;DHT22;11349;53.412;-1.328;2022-08-01T04:42:05;14.40;99.90
22364;DHT22;11349;53.412;-1.328;2022-08-01T04:44:32;14.40;99.90
22364;DHT22;11349;53.412;-1.328;2022-08-01T04:47:00;14.40;99.90
22364;DHT22;11349;53.412;-1.328;2022-08-01T04:49:31;14.40;99.90
22364;DHT22;11349;53.412;-1.328;2022-08-01T04:51:57;14.40;99.90
22364;DHT22;11349;53.412;-1.328;2022-08-01T04:54:34;14.40;99.90
22364;DHT22;11349;53.412;-1.328;2022-08-01T04:57:03;14.40;99.90
22364;DHT22;11349;53.412;-1.328;2022-08-01T04:59:30;14.40;99.90
22364;DHT22;11349;53.412;-1.328;2022-08-01T05:02:17;14.50;99.90
22364;DHT22;11349;53.412;-1.328;2022-08-01T05:04:44;14.40;99.90
22364;DHT22;11349;53.412;-1.328;2022-08-01T05:07:11;14.40;99.90
22364;DHT22;11349;53.412;-1.328;2022-08-01T05:09:37;14.50;99.90
22364;DHT22;11349;53.412;-1.328;2022-08-01T05:12:04;14.40;99.90
22364;DHT22;11349;53.412;-1.328;2022-08-01T05:14:31;14.40;99.90
22364;DHT22;11349;53.412;-1.328;2022-08-01T05:17:02;14.50;99.90
22364;DHT22;11349;53.412;-1.328;2022-08-01T05:19:35;14.50;99.90
22364;DHT22;11349;53.412;-1.328;2022-08-01T05:22:02;14.50;99.90
22364;DHT22;11349;53.412;-1.328;2022-08-01T05:24:34;14.50;99.90
22364;DHT22;11349;53.412;-1.328;2022-08-01T05:27:00;14.50;99.90
22364;DHT22;11349;53.412;-1.328;2022-08-01T05:29:27;14.50;99.90
22364;DHT22;11349;53.412;-1.328;2022-08-01T05:31:53;14.50;99.90
22364;DHT22;11349;53.412;-1.328;2022-08-01T05:34:20;14.50;99.90
22364;DHT22;11349;53.412;-1.328;2022-08-01T05:36:46;14.50;99.90
22364;DHT22;11349;53.412;-1.328;2022-08-01T05:39:12;14.50;99.90
22364;DHT22;11349;53.412;-1.328;2022-08-01T05:41:39;14.50;99.90
22364;DHT22;11349;53.412;-1.328;2022-08-01T05:44:05;14.60;99.90
22364;DHT22;11349;53.412;-1.328;2022-08-01T05:46:31;14.70;99.90
22364;DHT22;11349;53.412;-1.328;2022-08-01T05:48:58;14.80;87.80
22364;DHT22;11349;53.412;-1.328;2022-08-01T05:51:24;14.90;80.20
22364;DHT22;11349;53.412;-1.328;2022-08-01T05:53:50;15.00;90.70
22364;DHT22;11349;53.412;-1.328;2022-08-01T05:56:16;15.10;91.50
22364;DHT22;11349;53.412;-1.328;2022-08-01T05:58:41;15.10;93.60
22364;DHT22;11349;53.412;-1.328;2022-08-01T06:01:07;15.10;92.20
22364;DHT22;11349;53.412;-1.328;2022-08-01T06:03:33;15.00;73.70
22364;DHT22;11349;53.412;-1.328;2022-08-01T06:06:02;15.20;39.40
22364;DHT22;11349;53.412;-1.328;2022-08-01T06:08:28;15.20;3.60
22364;DHT22;11349;53.412;-1.328;2022-08-01T06:10:54;15.20;16.70
22364;DHT22;11349;53.412;-1.328;2022-08-01T06:13:20;15.30;15.50
22364;DHT22;11349;53.412;-1.328;2022-08-01T06:15:46;15.40;15.90
22364;DHT22;11349;53.412;-1.328;2022-08-01T06:18:12;15.60;4.60
22364;DHT22;11349;53.412;-1.328;2022-08-01T06:20:38;15.70;1.00
22364;DHT22;11349;53.412;-1.328;2022-08-01T06:23:04;15.70;1.00
22364;DHT22;11349;53.412;-1.328;2022-08-01T06:25:30;15.70;1.00
22364;DHT22;11349;53.412;-1.328;2022-08-01T06:27:55;15.80;1.00
22364;DHT22;11349;53.412;-1.328;2022-08-01T06:30:21;15.80;1.00
22364;DHT22;11349;53.412;-1.328;2022-08-01T06:32:47;15.90;1.00
22364;DHT22;11349;53.412;-1.328;2022-08-01T06:35:14;15.90;1.00
22364;DHT22;11349;53.412;-1.328;2022-08-01T06:37:40;16.00;1.00
22364;DHT22;11349;53.412;-1.328;2022-08-01T06:40:08;16.00;1.00
22364;DHT22;11349;53.412;-1.328;2022-08-01T06:42:34;16.10;1.00
22364;DHT22;11349;53.412;-1.328;2022-08-01T06:45:07;16.20;1.00
22364;DHT22;11349;53.412;-1.328;2022-08-01T06:47:33;16.30;1.00
22364;DHT22;11349;53.412;-1.328;2022-08-01T06:49:59;16.40;1.00
22364;DHT22;11349;53.412;-1.328;2022-08-01T06:52:25;16.60;1.00
22364;DHT22;11349;53.412;-1.328;2022-08-01T06:54:51;16.70;1.00
22364;DHT22;11349;53.412;-1.328;2022-08-01T06:57:17;16.80;1.00
22364;DHT22;11349;53.412;-1.328;2022-08-01T06:59:42;17.00;1.00
22364;DHT22;11349;53.412;-1.328;2022-08-01T07:02:08;17.20;1.00
22364;DHT22;11349;53.412;-1.328;2022-08-01T07:04:34;17.40;1.00
22364;DHT22;11349;53.412;-1.328;2022-08-01T07:07:00;17.70;1.00
22364;DHT22;11349;53.412;-1.328;2022-08-01T07:09:26;18.20;1.00
22364;DHT22;11349;53.412;-1.328;2022-08-01T07:11:52;18.70;99.90
22364;DHT22;11349;53.412;-1.328;2022-08-01T07:14:20;19.30;99.90
22364;DHT22;11349;53.412;-1.328;2022-08-01T07:16:46;20.10;99.90
22364;DHT22;11349;53.412;-1.328;2022-08-01T07:19:12;20.60;99.90
22364;DHT22;11349;53.412;-1.328;2022-08-01T07:21:38;21.00;90.10
22364;DHT22;11349;53.412;-1.328;2022-08-01T07:24:05;21.20;1.00
22364;DHT22;11349;53.412;-1.328;2022-08-01T07:26:31;21.70;99.90
22364;DHT22;11349;53.412;-1.328;2022-08-01T07:28:56;22.10;99.90
22364;DHT22;11349;53.412;-1.328;2022-08-01T07:31:22;22.60;1.00
22364;DHT22;11349;53.412;-1.328;2022-08-01T07:33:49;22.60;99.90
22364;DHT22;11349;53.412;-1.328;2022-08-01T07:36:18;22.80;1.00
22364;DHT22;11349;53.412;-1.328;2022-08-01T07:38:44;23.30;1.00
22364;DHT22;11349;53.412;-1.328;2022-08-01T07:41:10;23.80;99.90
22364;DHT22;11349;53.412;-1.328;2022-08-01T07:43:35;24.20;99.90
22364;DHT22;11349;53.412;-1.328;2022-08-01T07:46:03;24.40;99.90
22364;DHT22;11349;53.412;-1.328;2022-08-01T07:48:29;24.70;18.50
22364;DHT22;11349;53.412;-1.328;2022-08-01T07:50:54;25.10;99.90
22364;DHT22;11349;53.412;-1.328;2022-08-01T07:53:20;25.50;99.90
22364;DHT22;11349;53.412;-1.328;2022-08-01T07:55:46;25.90;99.90
22364;DHT22;11349;53.412;-1.328;2022-08-01T07:58:12;25.90;99.90
22364;DHT22;11349;53.412;-1.328;2022-08-01T08:00:38;26.20;99.90
22364;DHT22;11349;53.412;-1.328;2022-08-01T08:03:03;26.60;99.90
22364;DHT22;11349;53.412;-1.328;2022-08-01T08:05:29;26.60;99.40
22364;DHT22;11349;53.412;-1.328;2022-08-01T08:07:55;27.00;99.90
22364;DHT22;11349;53.412;-1.328;2022-08-01T08:10:21;26.80;1.00
22364;DHT22;11349;53.412;-1.328;2022-08-01T08:12:46;27.10;99.90
22364;DHT22;11349;53.412;-1.328;2022-08-01T08:15:13;27.40;1.00
22364;DHT22;11349;53.412;-1.328;2022-08-01T08:17:39;27.70;1.00
22364;DHT22;11349;53.412;-1.328;2022-08-01T08:20:06;28.00;1.00
22364;DHT22;11349;53.412;-1.328;2022-08-01T08:22:32;27.70;99.90
22364;DHT22;11349;53.412;-1.328;2022-08-01T08:24:59;27.80;1.00
22364;DHT22;11349;53.412;-1.328;2022-08-01T08:27:25;27.50;1.00
22364;DHT22;11349;53.412;-1.328;2022-08-01T08:29:50;28.10;1.00
22364;DHT22;11349;53.412;-1.328;2022-08-01T08:32:16;28.50;1.00
22364;DHT22;11349;53.412;-1.328;2022-08-01T08:34:42;28.70;99.90
22364;DHT22;11349;53.412;-1.328;2022-08-01T08:37:08;29.00;99.90
22364;DHT22;11349;53.412;-1.328;2022-08-01T08:39:34;29.00;99.90
22364;DHT22;11349;53.412;-1.328;2022-08-01T08:42:00;28.90;99.90
22364;DHT22;11349;53.412;-1.328;2022-08-01T08:44:27;29.20;99.90
22364;DHT22;11349;53.412;-1.328;2022-08-01T08:46:55;29.70;99.90
22364;DHT22;11349;53.412;-1.328;2022-08-01T08:49:28;29.20;99.90
22364;DHT22;11349;53.412;-1.328;2022-08-01T08:51:58;29.40;99.90
22364;DHT22;11349;53.412;-1.328;2022-08-01T08:54:24;29.90;99.90
22364;DHT22;11349;53.412;-1.328;2022-08-01T08:56:52;29.30;99.90
22364;DHT22;11349;53.412;-1.328;2022-08-01T08:59:18;29.90;99.90
22364;DHT22;11349;53.412;-1.328;2022-08-01T09:01:44;30.50;99.90
22364;DHT22;11349;53.412;-1.328;2022-08-01T09:04:11;30.50;99.90
22364;DHT22;11349;53.412;-1.328;2022-08-01T09:06:37;30.90;99.90
22364;DHT22;11349;53.412;-1.328;2022-08-01T09:09:04;30.90;99.90
22364;DHT22;11349;53.412;-1.328;2022-08-01T09:11:30;31.00;99.90
22364;DHT22;11349;53.412;-1.328;2022-08-01T09:14:06;30.90;99.90
22364;DHT22;11349;53.412;-1.328;2022-08-01T09:16:34;30.60;30.10
22364;DHT22;11349;53.412;-1.328;2022-08-01T09:19:16;30.50;91.90
22364;DHT22;11349;53.412;-1.328;2022-08-01T09:21:59;30.60;1.00
22364;DHT22;11349;53.412;-1.328;2022-08-01T09:24:26;30.30;69.20
22364;DHT22;11349;53.412;-1.328;2022-08-01T09:26:53;30.50;1.00
22364;DHT22;11349;53.412;-1.328;2022-08-01T09:29:22;30.70;1.00
22364;DHT22;11349;53.412;-1.328;2022-08-01T09:31:48;30.80;1.00
22364;DHT22;11349;53.412;-1.328;2022-08-01T09:34:16;30.60;1.00
22364;DHT22;11349;53.412;-1.328;2022-08-01T09:36:48;30.70;1.00
22364;DHT22;11349;53.412;-1.328;2022-08-01T09:39:18;30.60;1.00
22364;DHT22;11349;53.412;-1.328;2022-08-01T09:41:44;30.50;1.00
22364;DHT22;11349;53.412;-1.328;2022-08-01T09:44:10;30.60;1.00
22364;DHT22;11349;53.412;-1.328;2022-08-01T09:46:48;30.20;1.00
22364;DHT22;11349;53.412;-1.328;2022-08-01T09:49:14;30.10;1.00
22364;DHT22;11349;53.412;-1.328;2022-08-01T09:51:40;29.40;1.00
22364;DHT22;11349;53.412;-1.328;2022-08-01T09:54:06;29.80;1.00
22364;DHT22;11349;53.412;-1.328;2022-08-01T09:56:40;29.70;1.00
22364;DHT22;11349;53.412;-1.328;2022-08-01T09:59:07;29.30;1.00
22364;DHT22;11349;53.412;-1.328;2022-08-01T10:01:46;29.40;1.00
22364;DHT22;11349;53.412;-1.328;2022-08-01T10:04:20;28.80;1.00
22364;DHT22;11349;53.412;-1.328;2022-08-01T10:06:49;29.20;1.00
22364;DHT22;11349;53.412;-1.328;2022-08-01T10:09:30;29.10;1.00
22364;DHT22;11349;53.412;-1.328;2022-08-01T10:11:56;28.80;1.00
22364;DHT22;11349;53.412;-1.328;2022-08-01T10:14:24;28.60;1.00
22364;DHT22;11349;53.412;-1.328;2022-08-01T10:16:52;28.30;99.90
22364;DHT22;11349;53.412;-1.328;2022-08-01T10:19:22;28.00;99.90
22364;DHT22;11349;53.412;-1.328;2022-08-01T10:21:50;27.60;99.90
22364;DHT22;11349;53.412;-1.328;2022-08-01T10:24:20;28.30;1.00
22364;DHT22;11349;53.412;-1.328;2022-08-01T10:26:52;28.10;1.00
22364;DHT22;11349;53.412;-1.328;2022-08-01T10:29:21;27.90;1.00
22364;DHT22;11349;53.412;-1.328;2022-08-01T10:31:47;27.60;12.30
22364;DHT22;11349;53.412;-1.328;2022-08-01T10:34:16;27.30;1.00
22364;DHT22;11349;53.412;-1.328;2022-08-01T10:36:45;27.00;94.20
22364;DHT22;11349;53.412;-1.328;2022-08-01T10:39:12;27.10;1.00
22364;DHT22;11349;53.412;-1.328;2022-08-01T10:41:41;27.20;99.90
22364;DHT22;11349;53.412;-1.328;2022-08-01T10:44:08;27.10;1.00
22364;DHT22;11349;53.412;-1.328;2022-08-01T10:46:48;26.80;96.70
22364;DHT22;11349;53.412;-1.328;2022-08-01T10:49:17;26.60;1.00
22364;DHT22;11349;53.412;-1.328;2022-08-01T10:51:45;26.20;74.60
22364;DHT22;11349;53.412;-1.328;2022-08-01T10:54:12;26.20;1.00
22364;DHT22;11349;53.412;-1.328;2022-08-01T10:56:49;26.40;1.00
22364;DHT22;11349;53.412;-1.328;2022-08-01T10:59:25;26.50;99.90
22364;DHT22;11349;53.412;-1.328;2022-08-01T11:04:44;26.10;1.00
22364;DHT22;11349;53.412;-1.328;2022-08-01T11:07:17;26.10;99.90
22364;DHT22;11349;53.412;-1.328;2022-08-01T11:09:58;26.10;99.90
22364;DHT22;11349;53.412;-1.328;2022-08-01T11:12:38;26.00;1.00
22364;DHT22;11349;53.412;-1.328;2022-08-01T11:15:17;25.90;1.00
22364;DHT22;11349;53.412;-1.328;2022-08-01T11:17:50;26.00;99.90
22364;DHT22;11349;53.412;-1.328;2022-08-01T11:20:22;25.80;99.90
22364;DHT22;11349;53.412;-1.328;2022-08-01T11:30:40;25.60;1.00
22364;DHT22;11349;53.412;-1.328;2022-08-01T11:33:07;25.60;99.90
22364;DHT22;11349;53.412;-1.328;2022-08-01T11:35:36;25.60;99.90
22364;DHT22;11349;53.412;-1.328;2022-08-01T11:38:24;25.50;1.00
22364;DHT22;11349;53.412;-1.328;2022-08-01T11:41:23;25.50;1.00
22364;DHT22;11349;53.412;-1.328;2022-08-01T11:44:10;25.10;1.00
22364;DHT22;11349;53.412;-1.328;2022-08-01T11:47:03;25.20;1.00
22364;DHT22;11349;53.412;-1.328;2022-08-01T11:49:47;25.20;99.90
22364;DHT22;11349;53.412;-1.328;2022-08-01T11:54:55;25.10;99.90
22364;DHT22;11349;53.412;-1.328;2022-08-01T11:57:23;25.00;1.00
22364;DHT22;11349;53.412;-1.328;2022-08-01T11:59:59;25.00;99.90
22364;DHT22;11349;53.412;-1.328;2022-08-01T12:02:29;24.80;1.00
22364;DHT22;11349;53.412;-1.328;2022-08-01T12:04:57;24.90;1.00
22364;DHT22;11349;53.412;-1.328;2022-08-01T12:07:25;25.10;99.90
22364;DHT22;11349;53.412;-1.328;2022-08-01T12:10:14;25.00;99.90
22364;DHT22;11349;53.412;-1.328;2022-08-01T12:12:52;25.00;99.90
22364;DHT22;11349;53.412;-1.328;2022-08-01T12:15:19;24.90;1.00
22364;DHT22;11349;53.412;-1.328;2022-08-01T12:17:48;25.00;1.00
22364;DHT22;11349;53.412;-1.328;2022-08-01T12:20:18;24.90;1.00
22364;DHT22;11349;53.412;-1.328;2022-08-01T12:22:44;24.70;99.90
22364;DHT22;11349;53.412;-1.328;2022-08-01T12:25:11;24.70;1.00
22364;DHT22;11349;53.412;-1.328;2022-08-01T12:27:39;24.80;1.00
22364;DHT22;11349;53.412;-1.328;2022-08-01T12:30:13;24.90;99.90
22364;DHT22;11349;53.412;-1.328;2022-08-01T12:32:40;24.80;99.90
22364;DHT22;11349;53.412;-1.328;2022-08-01T12:35:19;24.90;99.90
22364;DHT22;11349;53.412;-1.328;2022-08-01T12:37:50;24.80;6.10
22364;DHT22;11349;53.412;-1.328;2022-08-01T12:40:25;24.70;99.90
22364;DHT22;11349;53.412;-1.328;2022-08-01T12:42:53;24.60;99.90
22364;DHT22;11349;53.412;-1.328;2022-08-01T12:45:24;24.60;99.90
22364;DHT22;11349;53.412;-1.328;2022-08-01T12:47:52;24.50;99.90
22364;DHT22;11349;53.412;-1.328;2022-08-01T12:50:23;24.60;99.90
22364;DHT22;11349;53.412;-1.328;2022-08-01T12:52:51;24.70;1.00
22364;DHT22;11349;53.412;-1.328;2022-08-01T12:55:27;24.80;1.00
22364;DHT22;11349;53.412;-1.328;2022-08-01T12:58:10;24.60;99.90
22364;DHT22;11349;53.412;-1.328;2022-08-01T13:00:38;24.70;99.90
22364;DHT22;11349;53.412;-1.328;2022-08-01T13:05:51;24.80;1.00
22364;DHT22;11349;53.412;-1.328;2022-08-01T13:08:21;24.70;99.90
22364;DHT22;11349;53.412;-1.328;2022-08-01T13:10:47;24.70;99.90
22364;DHT22;11349;53.412;-1.328;2022-08-01T13:13:14;24.50;99.90
22364;DHT22;11349;53.412;-1.328;2022-08-01T13:15:42;24.50;99.90
22364;DHT22;11349;53.412;-1.328;2022-08-01T13:18:26;24.60;99.90
22364;DHT22;11349;53.412;-1.328;2022-08-01T13:21:18;24.60;99.90
22364;DHT22;11349;53.412;-1.328;2022-08-01T13:24:07;24.70;1.00
22364;DHT22;11349;53.412;-1.328;2022-08-01T13:27:19;24.80;99.90
22364;DHT22;11349;53.412;-1.328;2022-08-01T13:29:45;24.70;97.50
22364;DHT22;11349;53.412;-1.328;2022-08-01T13:32:13;24.50;99.90
22364;DHT22;11349;53.412;-1.328;2022-08-01T13:34:39;24.70;99.90
22364;DHT22;11349;53.412;-1.328;2022-08-01T13:37:05;24.80;99.90
22364;DHT22;11349;53.412;-1.328;2022-08-01T13:39:31;24.70;99.90
22364;DHT22;11349;53.412;-1.328;2022-08-01T13:42:13;24.70;1.00
22364;DHT22;11349;53.412;-1.328;2022-08-01T13:44:40;24.80;99.90
22364;DHT22;11349;53.412;-1.328;2022-08-01T13:47:06;24.90;99.90
22364;DHT22;11349;53.412;-1.328;2022-08-01T13:49:32;24.90;99.90
22364;DHT22;11349;53.412;-1.328;2022-08-01T13:51:59;24.90;99.90
22364;DHT22;11349;53.412;-1.328;2022-08-01T13:54:25;24.90;1.00
22364;DHT22;11349;53.412;-1.328;2022-08-01T13:56:51;24.80;99.90
22364;DHT22;11349;53.412;-1.328;2022-08-01T13:59:17;24.90;99.90
22364;DHT22;11349;53.412;-1.328;2022-08-01T14:01:43;24.80;1.00
22364;DHT22;11349;53.412;-1.328;2022-08-01T14:04:09;24.80;1.00
22364;DHT22;11349;53.412;-1.328;2022-08-01T14:06:34;24.80;1.00
22364;DHT22;11349;53.412;-1.328;2022-08-01T14:09:01;24.80;99.90
22364;DHT22;11349;53.412;-1.328;2022-08-01T14:11:27;24.70;34.50
22364;DHT22;11349;53.412;-1.328;2022-08-01T14:13:53;24.80;99.90
22364;DHT22;11349;53.412;-1.328;2022-08-01T14:16:19;24.70;1.00
22364;DHT22;11349;53.412;-1.328;2022-08-01T14:18:45;24.50;99.90
22364;DHT22;11349;53.412;-1.328;2022-08-01T14:21:11;24.50;81.60
22364;DHT22;11349;53.412;-1.328;2022-08-01T14:23:37;24.60;1.00
22364;DHT22;11349;53.412;-1.328;2022-08-01T14:26:03;24.70;99.90
22364;DHT22;11349;53.412;-1.328;2022-08-01T14:28:29;24.60;99.90
22364;DHT22;11349;53.412;-1.328;2022-08-01T14:30:57;24.60;99.90
22364;DHT22;11349;53.412;-1.328;2022-08-01T14:33:22;24.60;99.90
22364;DHT22;11349;53.412;-1.328;2022-08-01T14:35:48;24.70;99.90
22364;DHT22;11349;53.412;-1.328;2022-08-01T14:38:14;24.60;99.90
22364;DHT22;11349;53.412;-1.328;2022-08-01T14:40:40;24.80;99.90
22364;DHT22;11349;53.412;-1.328;2022-08-01T14:43:06;24.60;99.90
22364;DHT22;11349;53.412;-1.328;2022-08-01T14:45:32;24.50;99.90
22364;DHT22;11349;53.412;-1.328;2022-08-01T14:47:58;24.50;99.90
22364;DHT22;11349;53.412;-1.328;2022-08-01T14:50:24;24.60;99.90
22364;DHT22;11349;53.412;-1.328;2022-08-01T14:52:52;24.60;1.00
22364;DHT22;11349;53.412;-1.328;2022-08-01T14:55:18;24.70;95.60
22364;DHT22;11349;53.412;-1.328;2022-08-01T14:57:49;24.70;41.60
22364;DHT22;11349;53.412;-1.328;2022-08-01T15:00:15;24.50;99.90
22364;DHT22;11349;53.412;-1.328;2022-08-01T15:02:41;24.50;1.00
22364;DHT22;11349;53.412;-1.328;2022-08-01T15:05:08;24.50;99.90
22364;DHT22;11349;53.412;-1.328;2022-08-01T15:07:35;24.60;99.90
22364;DHT22;11349;53.412;-1.328;2022-08-01T15:10:00;24.70;99.90
22364;DHT22;11349;53.412;-1.328;2022-08-01T15:12:26;24.70;99.90
22364;DHT22;11349;53.412;-1.328;2022-08-01T15:14:52;24.70;99.90
22364;DHT22;11349;53.412;-1.328;2022-08-01T15:17:21;24.50;99.90
22364;DHT22;11349;53.412;-1.328;2022-08-01T15:19:48;24.50;99.90
22364;DHT22;11349;53.412;-1.328;2022-08-01T15:22:15;24.60;99.90
22364;DHT22;11349;53.412;-1.328;2022-08-01T15:24:41;24.50;99.90
22364;DHT22;11349;53.412;-1.328;2022-08-01T15:27:08;24.50;99.90
22364;DHT22;11349;53.412;-1.328;2022-08-01T15:29:33;24.60;99.90
22364;DHT22;11349;53.412;-1.328;2022-08-01T15:32:00;24.60;99.90
22364;DHT22;11349;53.412;-1.328;2022-08-01T15:34:26;24.60;99.90
22364;DHT22;11349;53.412;-1.328;2022-08-01T15:36:52;24.60;99.90
22364;DHT22;11349;53.412;-1.328;2022-08-01T15:39:18;24.50;1.00
22364;DHT22;11349;53.412;-1.328;2022-08-01T15:41:43;24.50;99.90
22364;DHT22;11349;53.412;-1.328;2022-08-01T15:44:09;24.50;99.90
22364;DHT22;11349;53.412;-1.328;2022-08-01T15:46:35;24.50;99.90
22364;DHT22;11349;53.412;-1.328;2022-08-01T15:49:05;24.50;99.90
22364;DHT22;11349;53.412;-1.328;2022-08-01T15:51:32;24.60;99.90
22364;DHT22;11349;53.412;-1.328;2022-08-01T15:53:58;24.50;99.90
22364;DHT22;11349;53.412;-1.328;2022-08-01T15:56:29;24.60;99.90
22364;DHT22;11349;53.412;-1.328;2022-08-01T15:58:55;24.50;1.00